Time;durP1;ratioP1;P1;durP2;ratioP2;P2;SDS_P1;SDS_P2;PMS_P1;PMS_P2;Temp;Humidity;BMP_temperature;BMP_pressure;BME280_temperature;BME280_humidity;BME280_pressure;Samples;Min_cycle;Max_cycle;Signal;HPM_P1;HPM_P2
2024/04/16 00:01:59;;;;;;;1.37;0.93;;;16.40;78.70;;;;;;5559851;25;20443;-46
2024/04/16 00:04:29;;;;;;;0.80;0.50;;;16.40;78.80;;;;;;5560836;25;21282;-46
2024/04/16 00:06:57;;;;;;;1.00;0.60;;;16.40;78.90;;;;;;5550113;25;20556;-48
2024/04/16 00:09:26;;;;;;;3.00;0.80;;;16.40;78.70;;;;;;5560870;25;20998;-46
2024/04/16 00:11:54;;;;;;;1.07;0.53;;;16.40;78.20;;;;;;5559733;25;21198;-46
2024/04/16 00:14:46;;;;;;;2.33;0.70;;;16.40;78.90;;;;;;5536315;25;20522;-46
2024/04/16 00:17:16;;;;;;;0.97;0.60;;;16.40;78.60;;;;;;5524766;25;20538;-46
2024/04/16 00:19:46;;;;;;;1.43;0.60;;;16.40;78.90;;;;;;5519574;25;20492;-45
2024/04/16 00:22:14;;;;;;;1.77;0.70;;;16.40;78.40;;;;;;5520124;25;20459;-46
2024/04/16 00:24:43;;;;;;;1.10;0.70;;;16.30;78.50;;;;;;5559007;25;20518;-46
2024/04/16 00:27:11;;;;;;;1.53;0.70;;;16.40;78.90;;;;;;5556994;25;20478;-46
2024/04/16 00:29:40;;;;;;;1.00;0.60;;;16.40;78.60;;;;;;5550331;25;21175;-48
2024/04/16 00:32:08;;;;;;;0.97;0.70;;;16.30;79.10;;;;;;5557467;25;20548;-48
2024/04/16 00:34:40;;;;;;;1.23;0.80;;;16.30;78.00;;;;;;5555260;25;20458;-46
2024/04/16 00:37:08;;;;;;;2.87;0.80;;;16.30;78.90;;;;;;5516392;25;20884;-47
2024/04/16 00:39:39;;;;;;;1.60;0.63;;;16.30;77.80;;;;;;5562098;25;20450;-47
2024/04/16 00:42:06;;;;;;;1.70;1.37;;;16.30;78.00;;;;;;5556454;25;20450;-47
2024/04/16 00:44:36;;;;;;;3.37;0.70;;;16.30;78.20;;;;;;5549147;25;20522;-46
2024/04/16 00:47:04;;;;;;;1.10;0.70;;;16.30;78.50;;;;;;5559432;25;20503;-47
2024/04/16 00:49:34;;;;;;;1.87;0.90;;;16.30;78.20;;;;;;5559460;25;20518;-46
2024/04/16 00:52:05;;;;;;;1.37;0.60;;;16.20;78.60;;;;;;5553982;25;20452;-47
2024/04/16 00:54:36;;;;;;;1.70;0.83;;;16.20;78.00;;;;;;5554579;25;20514;-46
2024/04/16 00:57:03;;;;;;;1.03;0.70;;;16.20;78.80;;;;;;5556932;25;20506;-47
2024/04/16 00:59:35;;;;;;;0.90;0.50;;;16.20;79.10;;;;;;5551055;25;20463;-47
2024/04/16 01:02:02;;;;;;;2.03;1.00;;;16.20;78.00;;;;;;5560036;25;20451;-47
2024/04/16 01:04:32;;;;;;;1.00;0.70;;;16.20;78.40;;;;;;5560981;25;20823;-48
2024/04/16 01:07:00;;;;;;;0.70;0.50;;;16.10;78.70;;;;;;5552001;25;20511;-47
2024/04/16 01:09:32;;;;;;;2.30;0.73;;;16.20;78.90;;;;;;5560776;25;20551;-47
2024/04/16 01:12:00;;;;;;;1.20;0.87;;;16.20;78.60;;;;;;5558754;25;20494;-47
2024/04/16 01:14:30;;;;;;;1.70;0.70;;;16.20;78.80;;;;;;5550584;25;20450;-48
2024/04/16 01:16:57;;;;;;;1.20;0.80;;;16.20;78.60;;;;;;5560302;25;20571;-45
2024/04/16 01:19:27;;;;;;;1.40;0.60;;;16.20;78.50;;;;;;5560881;25;20513;-45
2024/04/16 01:21:54;;;;;;;0.90;0.57;;;16.10;77.60;;;;;;5555879;25;20503;-48
2024/04/16 01:24:27;;;;;;;0.80;0.40;;;16.10;78.30;;;;;;5552159;25;20459;-47
2024/04/16 01:26:54;;;;;;;0.93;0.60;;;16.10;78.60;;;;;;5562349;25;21117;-47
2024/04/16 01:29:24;;;;;;;1.03;0.60;;;16.10;79.50;;;;;;5540869;25;21011;-47
2024/04/16 01:31:51;;;;;;;1.00;0.70;;;16.10;77.70;;;;;;5559426;25;20461;-47
2024/04/16 01:34:21;;;;;;;1.87;1.03;;;16.10;78.40;;;;;;5560415;25;20522;-45
2024/04/16 01:36:48;;;;;;;1.00;0.50;;;16.10;78.70;;;;;;5556561;25;20511;-48
2024/04/16 01:39:18;;;;;;;1.60;0.70;;;16.10;78.90;;;;;;5554757;25;20872;-47
2024/04/16 01:41:48;;;;;;;1.23;0.70;;;16.10;78.80;;;;;;5554774;25;21068;-47
2024/04/16 01:44:17;;;;;;;1.13;0.70;;;16.00;78.90;;;;;;5549868;25;20465;-47
2024/04/16 01:46:45;;;;;;;1.13;0.97;;;16.00;79.00;;;;;;5543735;25;20561;-47
2024/04/16 01:49:14;;;;;;;1.20;0.60;;;16.00;78.60;;;;;;5554586;25;21127;-47
2024/04/16 01:51:42;;;;;;;0.93;0.60;;;16.00;78.00;;;;;;5511382;25;20511;-47
2024/04/16 01:54:11;;;;;;;1.87;0.90;;;16.00;78.50;;;;;;5559614;25;20446;-48
2024/04/16 01:56:39;;;;;;;1.10;0.57;;;16.00;78.30;;;;;;5542078;25;20878;-47
2024/04/16 01:59:11;;;;;;;1.10;0.60;;;16.00;79.00;;;;;;5547420;25;21006;-47
2024/04/16 02:01:38;;;;;;;0.93;0.60;;;16.00;79.40;;;;;;5555745;25;20454;-47
2024/04/16 02:04:08;;;;;;;1.30;0.80;;;15.90;79.00;;;;;;5561090;25;20443;-47
2024/04/16 02:06:35;;;;;;;1.00;0.73;;;15.90;78.70;;;;;;5553292;25;20456;-47
2024/04/16 02:09:05;;;;;;;1.53;0.80;;;15.90;78.30;;;;;;5551344;25;20458;-47
2024/04/16 02:11:32;;;;;;;1.67;0.80;;;15.90;78.90;;;;;;5543483;25;20996;-47
2024/04/16 02:14:02;;;;;;;1.13;0.63;;;15.90;78.80;;;;;;5552639;25;20442;-47
2024/04/16 02:16:32;;;;;;;1.50;0.70;;;15.90;78.70;;;;;;5556653;25;20466;-47
2024/04/16 02:19:02;;;;;;;2.97;1.03;;;15.90;78.30;;;;;;5563393;25;20551;-47
2024/04/16 02:21:29;;;;;;;2.30;0.77;;;15.90;79.70;;;;;;5563194;25;20519;-47
2024/04/16 02:23:59;;;;;;;0.97;0.60;;;15.90;78.90;;;;;;5561476;25;20490;-47
2024/04/16 02:26:26;;;;;;;1.00;0.53;;;15.90;78.40;;;;;;5554784;25;20563;-47
2024/04/16 02:28:56;;;;;;;1.80;0.70;;;15.90;78.80;;;;;;5554405;25;20919;-47
2024/04/16 02:31:24;;;;;;;1.60;0.77;;;15.80;78.30;;;;;;5551883;25;20458;-47
2024/04/16 02:33:56;;;;;;;1.30;0.80;;;15.80;78.20;;;;;;5562645;25;20458;-47
2024/04/16 02:36:23;;;;;;;1.40;0.60;;;15.80;78.80;;;;;;5557472;25;20538;-47
2024/04/16 02:38:53;;;;;;;1.97;0.97;;;15.80;78.90;;;;;;5559278;25;20959;-47
2024/04/16 02:41:20;;;;;;;1.47;0.70;;;15.80;78.60;;;;;;5550845;25;20466;-47
2024/04/16 02:43:50;;;;;;;1.30;0.70;;;15.80;78.80;;;;;;5548349;25;21415;-46
2024/04/16 02:46:17;;;;;;;1.73;0.70;;;15.80;78.80;;;;;;5562015;25;20571;-47
2024/04/16 02:48:47;;;;;;;2.70;0.70;;;15.80;79.10;;;;;;5557988;25;20535;-47
2024/04/16 02:51:17;;;;;;;1.53;0.90;;;15.80;78.80;;;;;;5548644;25;20569;-47
2024/04/16 02:53:46;;;;;;;1.53;0.60;;;15.80;78.80;;;;;;5557320;25;20458;-47
2024/04/16 02:56:14;;;;;;;1.80;0.80;;;15.70;78.50;;;;;;5561857;25;20514;-47
2024/04/16 02:58:46;;;;;;;3.53;0.90;;;15.70;78.60;;;;;;5514413;25;20471;-47
2024/04/16 03:01:13;;;;;;;1.53;0.93;;;15.70;78.90;;;;;;5553093;25;20451;-47
2024/04/16 03:03:43;;;;;;;1.37;0.83;;;15.70;79.30;;;;;;5560122;25;20543;-46
2024/04/16 03:06:10;;;;;;;1.10;0.80;;;15.70;79.00;;;;;;5558847;25;20508;-47
2024/04/16 03:08:43;;;;;;;1.30;0.60;;;15.70;79.20;;;;;;5557802;25;21079;-47
2024/04/16 03:11:10;;;;;;;1.00;0.60;;;15.70;79.10;;;;;;5553205;25;20463;-47
2024/04/16 03:13:40;;;;;;;1.20;0.73;;;15.70;79.20;;;;;;5547457;25;20507;-47
2024/04/16 03:16:07;;;;;;;2.00;0.60;;;15.70;79.50;;;;;;5534405;25;20536;-47
2024/04/16 03:18:37;;;;;;;1.03;0.77;;;15.70;79.20;;;;;;5561403;25;20515;-48
2024/04/16 03:21:05;;;;;;;1.43;0.83;;;15.70;79.50;;;;;;5547977;25;20585;-48
2024/04/16 03:23:34;;;;;;;2.40;0.77;;;15.60;79.50;;;;;;5558718;25;20455;-47
2024/04/16 03:26:04;;;;;;;2.07;0.70;;;15.60;79.60;;;;;;5556652;25;20511;-48
2024/04/16 03:28:34;;;;;;;2.30;0.93;;;15.60;79.00;;;;;;5553116;25;20452;-47
2024/04/16 03:31:02;;;;;;;1.70;0.80;;;15.60;79.20;;;;;;5551725;25;20459;-47
2024/04/16 03:33:32;;;;;;;3.07;0.97;;;15.60;79.20;;;;;;5561338;25;20803;-48
2024/04/16 03:36:00;;;;;;;1.20;0.60;;;15.60;79.20;;;;;;5564131;25;20499;-45
2024/04/16 03:38:29;;;;;;;2.43;1.27;;;15.60;79.40;;;;;;5555505;25;20928;-46
2024/04/16 03:40:57;;;;;;;1.67;0.80;;;15.60;79.50;;;;;;5553649;25;20451;-45
2024/04/16 03:43:30;;;;;;;2.07;0.73;;;15.60;79.40;;;;;;5555305;25;21087;-45
2024/04/16 03:45:59;;;;;;;1.23;0.80;;;15.60;79.60;;;;;;5557086;25;20537;-45
2024/04/16 03:48:29;;;;;;;1.70;0.90;;;15.50;79.60;;;;;;5560469;25;20572;-48
2024/04/16 03:50:56;;;;;;;1.73;0.80;;;15.60;79.50;;;;;;5556158;25;20797;-47
2024/04/16 03:53:26;;;;;;;1.73;0.63;;;15.50;79.00;;;;;;5561376;25;20507;-48
2024/04/16 03:55:58;;;;;;;2.97;0.97;;;15.50;79.30;;;;;;5555783;25;20455;-45
2024/04/16 03:58:33;;;;;;;1.20;0.60;;;15.50;79.10;;;;;;5554331;25;20519;-46
2024/04/16 04:01:03;;;;;;;1.77;0.77;;;15.50;79.30;;;;;;5556811;25;20466;-48
2024/04/16 04:03:33;;;;;;;1.77;0.60;;;15.50;79.50;;;;;;5560353;25;20559;-48
2024/04/16 04:06:01;;;;;;;1.53;0.70;;;15.50;79.40;;;;;;5560491;25;20502;-46
2024/04/16 04:08:31;;;;;;;2.13;0.70;;;15.50;79.70;;;;;;5558884;25;20568;-46
2024/04/16 04:10:58;;;;;;;1.90;0.73;;;15.50;79.80;;;;;;5551163;25;21139;-49
2024/04/16 04:13:31;;;;;;;4.13;1.00;;;15.50;79.80;;;;;;5554853;25;20448;-48
2024/04/16 04:15:59;;;;;;;1.77;0.60;;;15.40;79.50;;;;;;5557241;25;20464;-46
2024/04/16 04:18:29;;;;;;;2.10;0.77;;;15.40;79.30;;;;;;5552351;25;20511;-47
2024/04/16 04:20:56;;;;;;;1.33;0.70;;;15.40;79.50;;;;;;5553133;25;20518;-46
2024/04/16 04:23:26;;;;;;;1.30;0.70;;;15.40;79.50;;;;;;5561414;25;20506;-45
2024/04/16 04:25:53;;;;;;;1.83;0.77;;;15.40;79.40;;;;;;5555055;25;21167;-46
2024/04/16 04:28:23;;;;;;;1.47;0.63;;;15.40;79.50;;;;;;5554016;25;21006;-48
2024/04/16 04:30:53;;;;;;;0.87;0.60;;;15.40;79.70;;;;;;5549778;25;20509;-46
2024/04/16 04:33:22;;;;;;;2.00;0.60;;;15.40;79.50;;;;;;5560834;25;20454;-46
2024/04/16 04:35:50;;;;;;;1.73;0.80;;;15.40;79.90;;;;;;5556212;25;20455;-46
2024/04/16 04:38:21;;;;;;;1.53;0.70;;;15.40;79.60;;;;;;5560565;25;20876;-49
2024/04/16 04:40:48;;;;;;;1.57;0.80;;;15.30;79.90;;;;;;5536716;25;20514;-47
2024/04/16 04:43:18;;;;;;;1.33;0.40;;;15.30;79.60;;;;;;5557785;25;21138;-46
2024/04/16 04:45:45;;;;;;;2.03;0.60;;;15.30;80.00;;;;;;5550682;25;20515;-47
2024/04/16 04:48:17;;;;;;;1.20;0.70;;;15.30;80.00;;;;;;5558355;25;20711;-49
2024/04/16 04:50:45;;;;;;;1.27;0.60;;;15.30;80.00;;;;;;5560094;25;20455;-48
2024/04/16 04:53:14;;;;;;;1.60;0.83;;;15.30;79.70;;;;;;5560757;25;20439;-49
2024/04/16 04:55:42;;;;;;;2.90;0.87;;;15.30;79.40;;;;;;5561021;25;20560;-50
2024/04/16 04:58:11;;;;;;;2.33;1.10;;;15.30;79.60;;;;;;5552949;25;20563;-45
2024/04/16 05:00:39;;;;;;;2.83;0.80;;;15.30;79.50;;;;;;5548299;25;20518;-48
2024/04/16 05:03:09;;;;;;;1.00;0.60;;;15.30;79.70;;;;;;5556976;25;20506;-49
2024/04/16 05:05:41;;;;;;;2.17;0.97;;;15.20;79.40;;;;;;5557026;25;20516;-49
2024/04/16 05:08:11;;;;;;;1.10;0.70;;;15.20;79.90;;;;;;5560512;25;20542;-47
2024/04/16 05:10:39;;;;;;;1.03;0.80;;;15.20;79.90;;;;;;5554710;25;20458;-47
2024/04/16 05:13:09;;;;;;;1.37;0.80;;;15.20;80.00;;;;;;5551152;25;20447;-51
2024/04/16 05:15:36;;;;;;;1.53;0.70;;;15.20;80.00;;;;;;5553057;25;21096;-49
2024/04/16 05:18:06;;;;;;;1.40;0.90;;;15.20;79.70;;;;;;5559480;25;20908;-46
2024/04/16 05:20:33;;;;;;;1.37;0.70;;;15.20;79.60;;;;;;5518690;25;20598;-47
2024/04/16 05:23:06;;;;;;;1.40;0.70;;;15.20;80.00;;;;;;5547883;25;20500;-49
2024/04/16 05:25:33;;;;;;;1.23;0.70;;;15.20;79.60;;;;;;5523239;25;20538;-49
2024/04/16 05:28:03;;;;;;;2.13;0.70;;;15.20;80.10;;;;;;5558195;25;20452;-49
2024/04/16 05:30:30;;;;;;;1.63;0.93;;;15.20;80.10;;;;;;5550059;25;20518;-49
2024/04/16 05:33:00;;;;;;;2.83;0.80;;;15.10;80.00;;;;;;5559186;25;20451;-46
2024/04/16 05:35:27;;;;;;;1.60;0.70;;;15.10;80.00;;;;;;5554614;25;20562;-48
2024/04/16 05:37:57;;;;;;;1.83;1.30;;;15.10;79.90;;;;;;5555750;25;20451;-49
2024/04/16 05:40:27;;;;;;;2.40;0.80;;;15.10;80.10;;;;;;5551866;25;20450;-49
2024/04/16 05:42:57;;;;;;;1.33;0.60;;;15.10;80.10;;;;;;5563300;25;20522;-47
2024/04/16 05:45:24;;;;;;;1.63;0.90;;;15.10;80.20;;;;;;5556444;25;20470;-48
2024/04/16 05:47:54;;;;;;;3.93;1.10;;;15.10;80.00;;;;;;5570802;25;21035;-48
2024/04/16 05:50:21;;;;;;;6.90;1.90;;;15.10;80.40;;;;;;5550994;25;20825;-47
2024/04/16 05:52:51;;;;;;;1.70;0.80;;;15.10;80.40;;;;;;5563799;25;20581;-47
2024/04/16 05:55:18;;;;;;;1.47;0.80;;;15.10;80.20;;;;;;5567396;25;20559;-47
2024/04/16 05:57:51;;;;;;;1.67;0.90;;;15.10;80.20;;;;;;5560910;25;20570;-47
2024/04/16 06:00:18;;;;;;;0.80;0.50;;;15.00;80.00;;;;;;5552260;25;20462;-47
2024/04/16 06:02:48;;;;;;;2.60;1.33;;;15.00;80.30;;;;;;5565561;25;20446;-47
2024/04/16 06:05:15;;;;;;;1.50;0.80;;;15.00;80.20;;;;;;5566440;25;20509;-50
2024/04/16 06:07:45;;;;;;;1.43;0.80;;;15.00;80.20;;;;;;5555078;25;20733;-48
2024/04/16 06:10:12;;;;;;;2.10;1.10;;;15.00;79.70;;;;;;5565366;25;20463;-47
2024/04/16 06:12:42;;;;;;;1.57;1.07;;;15.00;79.90;;;;;;5566968;25;20454;-48
2024/04/16 06:15:12;;;;;;;1.33;0.70;;;15.00;80.50;;;;;;5556825;25;20552;-47
2024/04/16 06:17:42;;;;;;;1.13;0.77;;;15.00;80.10;;;;;;5555281;25;20458;-49
2024/04/16 06:20:10;;;;;;;1.20;0.70;;;15.00;80.00;;;;;;5559800;25;20574;-49
2024/04/16 06:22:40;;;;;;;1.63;0.80;;;15.00;80.40;;;;;;5566736;25;20512;-49
2024/04/16 06:25:07;;;;;;;6.60;0.83;;;14.90;80.30;;;;;;5527315;25;20463;-47
2024/04/16 06:27:37;;;;;;;1.60;1.23;;;14.90;80.00;;;;;;5573590;25;20446;-47
2024/04/16 06:30:06;;;;;;;1.33;0.60;;;14.90;80.00;;;;;;5554390;25;21038;-47
2024/04/16 06:32:39;;;;;;;3.77;0.97;;;14.90;80.50;;;;;;5527015;25;20510;-49
2024/04/16 06:35:06;;;;;;;1.97;0.73;;;14.90;80.40;;;;;;5567049;25;20879;-47
2024/04/16 06:37:36;;;;;;;1.73;1.10;;;14.90;80.70;;;;;;5571693;25;20461;-49
2024/04/16 06:40:04;;;;;;;1.47;0.80;;;14.90;80.20;;;;;;5558614;25;20546;-49
2024/04/16 06:42:36;;;;;;;2.03;1.33;;;14.90;80.60;;;;;;5551881;25;20458;-48
2024/04/16 06:45:04;;;;;;;2.23;1.00;;;14.90;80.90;;;;;;5543140;25;20470;-49
2024/04/16 06:47:34;;;;;;;1.73;0.70;;;14.90;80.90;;;;;;5566350;25;20633;-49
2024/04/16 06:50:05;;;;;;;2.17;0.87;;;14.80;80.80;;;;;;5556242;25;21035;-49
2024/04/16 06:52:35;;;;;;;1.40;0.80;;;14.80;80.90;;;;;;5550540;25;20511;-48
2024/04/16 06:55:03;;;;;;;1.17;0.50;;;14.80;80.70;;;;;;5557285;25;20582;-48
2024/04/16 06:57:33;;;;;;;1.17;0.67;;;14.80;81.40;;;;;;5559309;25;20502;-47
2024/04/16 07:00:00;;;;;;;1.47;0.70;;;14.80;80.80;;;;;;5545665;25;20469;-49
2024/04/16 07:02:30;;;;;;;1.17;0.70;;;14.80;80.60;;;;;;5562080;25;20860;-48
2024/04/16 07:04:57;;;;;;;2.90;0.70;;;14.80;80.80;;;;;;5558601;25;20857;-48
2024/04/16 07:07:30;;;;;;;1.33;0.70;;;14.80;80.80;;;;;;5561785;25;20451;-48
2024/04/16 07:09:58;;;;;;;1.67;0.80;;;14.70;80.40;;;;;;5555056;25;20787;-50
2024/04/16 07:12:28;;;;;;;1.30;0.70;;;14.80;80.80;;;;;;5565428;25;20997;-47
2024/04/16 07:14:55;;;;;;;1.10;0.60;;;14.70;80.80;;;;;;5550523;25;20517;-45
2024/04/16 07:17:25;;;;;;;0.90;0.77;;;14.70;80.80;;;;;;5550505;25;20564;-48
2024/04/16 07:19:52;;;;;;;1.10;0.60;;;14.70;80.90;;;;;;5557864;25;20558;-46
2024/04/16 07:22:22;;;;;;;2.33;0.80;;;14.70;80.90;;;;;;5523814;25;20458;-48
2024/04/16 07:24:54;;;;;;;2.23;0.80;;;14.70;81.10;;;;;;5523438;25;20453;-48
2024/04/16 07:27:24;;;;;;;2.37;0.97;;;14.70;80.90;;;;;;5562343;25;20552;-47
2024/04/16 07:29:52;;;;;;;1.30;0.83;;;14.70;80.80;;;;;;5551023;25;20457;-49
2024/04/16 07:32:22;;;;;;;1.60;0.77;;;14.70;81.10;;;;;;5560980;25;20466;-48
2024/04/16 07:34:50;;;;;;;1.00;0.87;;;14.70;81.40;;;;;;5561989;25;20443;-48
2024/04/16 07:37:22;;;;;;;1.10;0.70;;;14.70;80.60;;;;;;5570056;25;20453;-47
2024/04/16 07:39:52;;;;;;;0.80;0.70;;;14.70;81.30;;;;;;5557858;25;20574;-48
2024/04/16 07:42:22;;;;;;;2.03;0.83;;;14.70;81.20;;;;;;5574392;25;20513;-47
2024/04/16 07:44:49;;;;;;;1.43;0.70;;;14.60;81.00;;;;;;5552964;25;20507;-47
2024/04/16 07:47:20;;;;;;;1.20;0.73;;;14.60;81.10;;;;;;5561065;25;20461;-48
2024/04/16 07:49:47;;;;;;;1.20;0.73;;;14.60;81.00;;;;;;5557966;25;20998;-47
2024/04/16 07:52:17;;;;;;;0.90;0.57;;;14.60;81.40;;;;;;5550877;25;20454;-49
2024/04/16 07:54:47;;;;;;;1.33;0.60;;;14.60;81.70;;;;;;5527684;25;20539;-47
2024/04/16 07:57:20;;;;;;;1.23;0.83;;;14.60;81.40;;;;;;5560534;25;20514;-49
2024/04/16 07:59:47;;;;;;;1.20;0.70;;;14.60;81.50;;;;;;5550567;25;20462;-47
2024/04/16 08:02:18;;;;;;;0.90;0.57;;;14.60;81.60;;;;;;5557092;25;20459;-49
2024/04/16 08:04:45;;;;;;;1.10;0.60;;;14.60;81.60;;;;;;5569256;25;20499;-48
2024/04/16 08:07:15;;;;;;;1.00;0.60;;;14.60;81.60;;;;;;5554219;25;20454;-48
2024/04/16 08:09:43;;;;;;;1.10;0.60;;;14.60;81.70;;;;;;5553069;25;20454;-48
2024/04/16 08:12:13;;;;;;;1.63;0.70;;;14.60;83.00;;;;;;5558076;25;21070;-47
2024/04/16 08:14:43;;;;;;;1.47;0.87;;;14.60;81.60;;;;;;5509462;25;20795;-48
2024/04/16 08:17:14;;;;;;;2.20;0.73;;;14.60;81.50;;;;;;5557695;25;20526;-47
2024/04/16 08:19:41;;;;;;;0.90;0.63;;;14.60;81.60;;;;;;5554240;25;20983;-46
2024/04/16 08:22:11;;;;;;;1.00;0.60;;;14.50;81.70;;;;;;5569500;25;20491;-46
2024/04/16 08:24:40;;;;;;;0.90;0.60;;;14.50;81.40;;;;;;5570177;25;20447;-48
2024/04/16 08:27:11;;;;;;;1.80;0.90;;;14.50;81.80;;;;;;5560658;25;20575;-47
2024/04/16 08:29:38;;;;;;;0.87;0.70;;;14.50;81.70;;;;;;5550102;25;20845;-47
2024/04/16 08:32:11;;;;;;;1.37;0.70;;;14.50;81.60;;;;;;5567993;25;20467;-47
2024/04/16 08:34:39;;;;;;;1.20;0.60;;;14.50;81.70;;;;;;5547916;25;20463;-46
2024/04/16 08:37:09;;;;;;;1.37;0.60;;;14.50;81.70;;;;;;5560614;25;21035;-45
2024/04/16 08:39:37;;;;;;;0.90;0.77;;;14.50;82.10;;;;;;5561000;25;20469;-46
2024/04/16 08:42:08;;;;;;;2.57;0.90;;;14.50;82.10;;;;;;5559647;25;20461;-45
2024/04/16 08:44:35;;;;;;;1.80;0.60;;;14.50;81.90;;;;;;5548131;25;20582;-46
2024/04/16 08:47:06;;;;;;;2.83;0.90;;;14.50;82.10;;;;;;5545240;25;20461;-47
2024/04/16 08:49:39;;;;;;;1.70;1.00;;;14.50;82.00;;;;;;5561101;25;20454;-47
2024/04/16 08:52:13;;;;;;;1.47;0.90;;;14.50;81.90;;;;;;5556023;25;20457;-47
2024/04/16 08:54:42;;;;;;;1.40;0.80;;;14.50;82.10;;;;;;5573716;25;20458;-47
2024/04/16 08:57:13;;;;;;;0.80;0.70;;;14.50;82.00;;;;;;5558407;25;20479;-47
2024/04/16 08:59:40;;;;;;;2.80;0.83;;;14.40;82.20;;;;;;5548899;25;20520;-47
2024/04/16 09:02:11;;;;;;;1.67;0.60;;;14.40;82.30;;;;;;5560397;25;20473;-47
2024/04/16 09:04:45;;;;;;;1.83;1.07;;;14.50;82.30;;;;;;5561076;25;20586;-47
2024/04/16 09:07:13;;;;;;;1.33;0.60;;;14.50;82.30;;;;;;5547627;25;20464;-47
2024/04/16 09:09:43;;;;;;;2.03;0.80;;;14.40;82.20;;;;;;5559986;25;21093;-47
2024/04/16 09:12:10;;;;;;;1.60;0.70;;;14.40;82.40;;;;;;5554242;25;20562;-47
2024/04/16 09:14:40;;;;;;;1.30;0.70;;;14.40;82.30;;;;;;5536666;25;20825;-47
2024/04/16 09:17:13;;;;;;;2.90;1.00;;;14.40;82.40;;;;;;5560745;25;20470;-48
2024/04/16 09:19:45;;;;;;;1.83;0.73;;;14.40;82.60;;;;;;5557843;25;20456;-48
2024/04/16 09:22:13;;;;;;;1.00;0.70;;;14.40;82.60;;;;;;5557103;25;21006;-47
2024/04/16 09:24:43;;;;;;;1.20;0.50;;;14.40;82.50;;;;;;5549500;25;20522;-47
2024/04/16 09:27:11;;;;;;;1.73;0.70;;;14.40;84.00;;;;;;5559016;25;20487;-47
2024/04/16 09:29:40;;;;;;;1.93;0.80;;;14.40;82.70;;;;;;5548392;25;20476;-47
2024/04/16 09:32:08;;;;;;;3.17;1.00;;;14.40;82.80;;;;;;5558644;25;20500;-47
2024/04/16 09:34:43;;;;;;;0.90;0.70;;;14.40;82.70;;;;;;5554012;25;20567;-47
2024/04/16 09:37:18;;;;;;;1.30;0.60;;;14.40;82.80;;;;;;5560290;25;20512;-47
2024/04/16 09:39:54;;;;;;;1.40;0.97;;;14.40;82.70;;;;;;5556649;25;20456;-50
2024/04/16 09:42:22;;;;;;;4.00;0.93;;;14.40;82.70;;;;;;5539761;25;20585;-49
2024/04/16 09:44:53;;;;;;;1.57;0.87;;;14.40;82.90;;;;;;5543329;25;20769;-48
2024/04/16 09:47:22;;;;;;;1.10;0.80;;;14.30;82.90;;;;;;5558895;25;20464;-50
2024/04/16 09:49:54;;;;;;;3.73;0.90;;;14.40;82.90;;;;;;5558767;25;20436;-47
2024/04/16 09:52:46;;;;;;;1.70;0.70;;;14.30;83.00;;;;;;5550908;25;20878;-49
2024/04/16 09:55:16;;;;;;;2.20;0.70;;;14.30;83.00;;;;;;5555427;25;20484;-47
2024/04/16 09:57:47;;;;;;;1.27;0.60;;;14.30;83.00;;;;;;5568873;25;20447;-49
2024/04/16 10:00:15;;;;;;;2.00;0.93;;;14.30;83.20;;;;;;5550268;25;20464;-47
2024/04/16 10:02:45;;;;;;;1.70;0.77;;;14.30;83.10;;;;;;5558909;25;20450;-50
2024/04/16 10:05:14;;;;;;;1.03;0.67;;;14.30;83.20;;;;;;5570243;25;20458;-47
2024/04/16 10:07:49;;;;;;;1.53;0.70;;;14.30;83.30;;;;;;5555227;25;20571;-48
2024/04/16 10:10:16;;;;;;;1.20;0.90;;;14.30;83.40;;;;;;5553086;25;20474;-46
2024/04/16 10:12:46;;;;;;;2.07;0.77;;;14.30;83.30;;;;;;5557416;25;20466;-49
2024/04/16 10:15:13;;;;;;;1.00;0.60;;;14.30;83.50;;;;;;5547856;25;20525;-48
2024/04/16 10:17:53;;;;;;;1.60;0.87;;;14.30;83.50;;;;;;5559625;25;20852;-47
2024/04/16 10:20:23;;;;;;;2.83;0.97;;;14.30;83.50;;;;;;5558469;25;20457;-49
2024/04/16 10:22:58;;;;;;;1.63;0.80;;;14.30;83.50;;;;;;5553446;25;20457;-48
2024/04/16 10:25:30;;;;;;;2.50;0.70;;;14.20;83.50;;;;;;5547069;25;20544;-49
2024/04/16 10:28:01;;;;;;;1.40;0.87;;;14.20;83.50;;;;;;5554332;25;20523;-51
2024/04/16 10:30:32;;;;;;;1.87;1.07;;;14.20;83.60;;;;;;5558864;25;20457;-47
2024/04/16 10:33:04;;;;;;;1.27;0.70;;;14.20;83.50;;;;;;5561875;25;21009;-50
2024/04/16 10:35:33;;;;;;;1.67;0.60;;;14.20;83.50;;;;;;5559491;25;20452;-48
2024/04/16 10:38:06;;;;;;;2.03;1.00;;;14.20;83.60;;;;;;5559851;25;20458;-47
2024/04/16 10:40:38;;;;;;;2.70;0.90;;;14.20;83.60;;;;;;5549468;25;20469;-48
2024/04/16 10:43:11;;;;;;;1.20;1.00;;;14.20;83.50;;;;;;5558756;25;20449;-52
2024/04/16 10:45:43;;;;;;;1.30;0.80;;;14.20;83.80;;;;;;5553443;25;20457;-48
2024/04/16 10:48:14;;;;;;;2.00;0.90;;;14.20;83.80;;;;;;5543170;25;20995;-47
2024/04/16 10:50:42;;;;;;;1.30;1.00;;;14.20;83.90;;;;;;5579844;25;21063;-49
2024/04/16 10:53:16;;;;;;;2.73;0.90;;;14.20;83.90;;;;;;5557046;25;20856;-48
2024/04/16 10:55:44;;;;;;;1.57;0.80;;;14.20;84.00;;;;;;5549068;25;21119;-49
2024/04/16 10:58:18;;;;;;;1.50;0.90;;;14.20;84.20;;;;;;5555419;25;20868;-47
2024/04/16 11:00:47;;;;;;;3.20;1.03;;;14.20;84.40;;;;;;5542743;25;21013;-47
2024/04/16 11:03:17;;;;;;;1.97;1.20;;;14.20;84.70;;;;;;5546145;25;20569;-49
2024/04/16 11:05:44;;;;;;;2.13;0.80;;;14.20;84.70;;;;;;5542907;25;21007;-48
2024/04/16 11:08:16;;;;;;;4.10;0.90;;;14.10;84.70;;;;;;5547259;25;20524;-47
2024/04/16 11:10:49;;;;;;;1.97;0.90;;;14.20;85.00;;;;;;5550747;25;20458;-46
2024/04/16 11:13:21;;;;;;;1.30;0.87;;;14.10;85.00;;;;;;5556211;25;21041;-47
2024/04/16 11:15:52;;;;;;;0.97;0.63;;;14.10;85.10;;;;;;5559077;25;20528;-49
2024/04/16 11:18:19;;;;;;;1.47;0.57;;;14.10;85.30;;;;;;5557280;25;20449;-47
2024/04/16 11:20:50;;;;;;;1.10;0.90;;;14.10;85.20;;;;;;5549031;25;21115;-47
2024/04/16 11:23:20;;;;;;;1.00;0.87;;;14.10;86.80;;;;;;5552485;25;20815;-46
2024/04/16 11:25:50;;;;;;;1.30;0.80;;;14.10;85.60;;;;;;5551963;25;20444;-47
2024/04/16 11:28:18;;;;;;;1.03;0.67;;;14.10;85.50;;;;;;5555204;25;20497;-48
2024/04/16 11:30:56;;;;;;;2.17;0.90;;;14.10;85.70;;;;;;5523683;25;20524;-49
2024/04/16 11:33:24;;;;;;;1.77;1.00;;;14.10;85.60;;;;;;5553088;25;20457;-48
2024/04/16 11:36:07;;;;;;;4.60;0.80;;;14.10;85.60;;;;;;5562543;25;20570;-47
2024/04/16 11:38:42;;;;;;;1.60;0.60;;;14.10;85.60;;;;;;5552727;25;20454;-46
2024/04/16 11:41:14;;;;;;;2.47;0.80;;;14.10;85.80;;;;;;5548758;25;20457;-47
2024/04/16 11:43:43;;;;;;;2.93;0.90;;;14.10;85.80;;;;;;5549494;25;20454;-47
2024/04/16 11:46:15;;;;;;;1.20;0.70;;;14.10;86.00;;;;;;5556898;25;20452;-48
2024/04/16 11:48:42;;;;;;;1.80;1.13;;;14.10;85.70;;;;;;5553211;25;20520;-46
2024/04/16 11:51:13;;;;;;;3.00;1.33;;;14.10;85.50;;;;;;5557409;25;20466;-48
2024/04/16 11:53:44;;;;;;;3.03;1.00;;;14.10;85.70;;;;;;5562744;25;20695;-45
2024/04/16 11:56:14;;;;;;;1.27;0.60;;;14.10;85.40;;;;;;5546143;25;20462;-47
2024/04/16 11:58:41;;;;;;;2.03;0.83;;;14.10;85.50;;;;;;5550243;25;20446;-48
2024/04/16 12:01:12;;;;;;;1.43;0.67;;;14.10;85.50;;;;;;5547673;25;20447;-47
2024/04/16 12:03:40;;;;;;;1.30;0.73;;;14.10;85.40;;;;;;5561094;25;20523;-47
2024/04/16 12:06:10;;;;;;;2.10;0.80;;;14.10;85.80;;;;;;5561015;25;20476;-46
2024/04/16 12:08:37;;;;;;;1.03;0.60;;;14.00;85.40;;;;;;5551289;25;21145;-47
2024/04/16 12:11:11;;;;;;;3.50;1.70;;;14.10;85.70;;;;;;5548554;25;20462;-46
2024/04/16 12:13:38;;;;;;;2.93;1.20;;;14.00;85.60;;;;;;5551126;25;20785;-48
2024/04/16 12:16:09;;;;;;;2.33;1.53;;;14.00;85.60;;;;;;5554859;25;20445;-48
2024/04/16 12:18:36;;;;;;;2.30;0.83;;;14.00;85.70;;;;;;5561096;25;20469;-48
2024/04/16 12:21:07;;;;;;;5.13;1.20;;;14.00;85.90;;;;;;5548998;25;20518;-49
2024/04/16 12:23:37;;;;;;;3.03;1.30;;;14.00;86.00;;;;;;5558201;25;20550;-47
2024/04/16 12:26:09;;;;;;;2.00;1.00;;;14.00;86.20;;;;;;5560320;25;20445;-46
2024/04/16 12:28:38;;;;;;;1.30;0.93;;;14.00;86.00;;;;;;5549580;25;20459;-46
2024/04/16 12:31:08;;;;;;;3.30;0.90;;;14.00;86.00;;;;;;5546125;25;20571;-48
2024/04/16 12:33:35;;;;;;;1.50;0.77;;;14.00;86.00;;;;;;5560426;25;20459;-47
2024/04/16 12:36:08;;;;;;;1.50;0.70;;;14.00;85.90;;;;;;5559866;25;20504;-47
2024/04/16 12:38:35;;;;;;;2.40;0.90;;;14.00;87.20;;;;;;5548885;25;20460;-47
2024/04/16 12:41:05;;;;;;;1.43;0.80;;;14.00;86.10;;;;;;5545517;25;20461;-46
2024/04/16 12:43:35;;;;;;;2.03;1.00;;;14.00;86.10;;;;;;5552791;25;20452;-46
2024/04/16 12:46:06;;;;;;;2.33;0.70;;;14.00;86.10;;;;;;5556096;25;20573;-49
2024/04/16 12:48:35;;;;;;;0.90;0.60;;;14.00;86.20;;;;;;5559258;25;21015;-46
2024/04/16 12:51:05;;;;;;;2.50;1.60;;;14.00;86.30;;;;;;5549426;25;20896;-47
2024/04/16 12:53:32;;;;;;;1.20;0.60;;;14.00;86.30;;;;;;5546518;25;20465;-47
2024/04/16 12:56:03;;;;;;;1.67;0.77;;;13.90;86.30;;;;;;5559909;25;20571;-47
2024/04/16 12:58:30;;;;;;;1.87;0.60;;;13.90;86.30;;;;;;5552776;25;20455;-47
2024/04/16 13:01:03;;;;;;;2.50;1.13;;;13.90;86.30;;;;;;5543952;25;20516;-47